Time;durP1;ratioP1;P1;durP2;ratioP2;P2;SDS_P1;SDS_P2;PMS_P1;PMS_P2;Temp;Humidity;BMP_temperature;BMP_pressure;BME280_temperature;BME280_humidity;BME280_pressure;Samples;Min_cycle;Max_cycle;Signal;HPM_P1;HPM_P2
2022/01/19 00:00:22;;;;;;;20.83;10.95;;;1.60;99.90;;;;;;4936430;29;20062;-84
2022/01/19 00:02:48;;;;;;;18.25;9.90;;;1.60;99.90;;;;;;4926693;29;20046;-85
2022/01/19 00:05:14;;;;;;;19.45;11.85;;;1.60;99.90;;;;;;4926722;29;20027;-84
2022/01/19 00:07:40;;;;;;;18.65;12.13;;;1.60;99.90;;;;;;4942694;29;20028;-85
2022/01/19 00:10:10;;;;;;;20.80;11.80;;;1.60;99.90;;;;;;4926883;29;20130;-88
2022/01/19 00:12:37;;;;;;;18.55;10.20;;;1.60;99.90;;;;;;4942170;28;20538;-87
2022/01/19 00:15:06;;;;;;;15.38;9.82;;;1.60;99.90;;;;;;4926053;29;20041;-88
2022/01/19 00:17:32;;;;;;;20.05;10.65;;;1.60;99.90;;;;;;4926413;29;20580;-86
2022/01/19 00:19:58;;;;;;;16.88;9.48;;;1.60;99.90;;;;;;4926493;29;20074;-87
2022/01/19 00:22:23;;;;;;;19.30;12.05;;;1.60;99.90;;;;;;4924979;29;20042;-85
2022/01/19 00:24:49;;;;;;;22.80;11.52;;;1.60;99.90;;;;;;4926615;29;20011;-85
2022/01/19 00:27:15;;;;;;;22.05;13.95;;;1.60;99.90;;;;;;4926895;29;20037;-88
2022/01/19 00:29:41;;;;;;;23.73;13.80;;;1.60;99.90;;;;;;4942104;29;20039;-86
2022/01/19 00:32:07;;;;;;;28.15;14.85;;;1.60;99.90;;;;;;4927032;29;20027;-85
2022/01/19 00:34:32;;;;;;;30.25;14.52;;;1.60;99.90;;;;;;4942998;29;20662;-86
2022/01/19 00:36:58;;;;;;;24.40;15.07;;;1.50;99.90;;;;;;4926964;29;20023;-86
2022/01/19 00:39:30;;;;;;;25.30;13.48;;;1.50;99.90;;;;;;4927953;29;20497;-87
2022/01/19 00:41:56;;;;;;;24.05;14.40;;;1.60;99.90;;;;;;4926560;29;20103;-86
2022/01/19 00:44:22;;;;;;;28.52;15.38;;;1.50;99.90;;;;;;4928264;29;20087;-88
2022/01/19 00:46:48;;;;;;;27.83;15.80;;;1.60;99.90;;;;;;4943368;29;20031;-85
2022/01/19 00:49:14;;;;;;;23.42;14.80;;;1.60;99.90;;;;;;4943114;29;20027;-86
2022/01/19 00:51:39;;;;;;;33.78;15.00;;;1.60;99.90;;;;;;4942719;29;20043;-87
2022/01/19 00:54:05;;;;;;;25.83;14.07;;;1.50;99.90;;;;;;4940428;29;20043;-88
2022/01/19 00:56:33;;;;;;;27.05;15.18;;;1.50;99.90;;;;;;4943101;29;20046;-86
2022/01/19 00:58:59;;;;;;;33.47;18.45;;;1.60;99.90;;;;;;4925202;29;20506;-87
2022/01/19 01:01:25;;;;;;;34.25;18.08;;;1.60;99.90;;;;;;4941355;29;20031;-85
2022/01/19 01:03:51;;;;;;;49.13;21.80;;;1.50;99.90;;;;;;4941619;29;20034;-85
2022/01/19 01:06:16;;;;;;;36.58;18.55;;;1.50;99.90;;;;;;4941501;29;20058;-85
2022/01/19 01:08:43;;;;;;;29.83;17.23;;;1.50;99.90;;;;;;4941821;29;20392;-85
2022/01/19 01:11:09;;;;;;;32.58;18.25;;;1.40;99.90;;;;;;4942064;29;20031;-86
2022/01/19 01:16:32;;;;;;;32.60;17.65;;;1.20;99.90;;;;;;4940593;29;20038;-86
2022/01/19 01:18:59;;;;;;;34.88;17.70;;;1.10;99.90;;;;;;4941368;29;20477;-85
2022/01/19 01:21:25;;;;;;;30.33;17.65;;;1.00;99.90;;;;;;4922886;29;20024;-86
2022/01/19 01:23:51;;;;;;;31.70;18.65;;;1.00;99.90;;;;;;4942214;29;20046;-85
2022/01/19 01:26:17;;;;;;;32.53;17.98;;;1.00;99.90;;;;;;4944336;29;20031;-86
2022/01/19 01:28:42;;;;;;;26.85;14.35;;;1.00;99.90;;;;;;4930077;29;20485;-85
2022/01/19 01:31:09;;;;;;;28.10;15.07;;;1.10;99.90;;;;;;4930838;29;20074;-86
2022/01/19 01:33:37;;;;;;;35.45;15.80;;;1.10;99.90;;;;;;4929705;29;20027;-85
2022/01/19 01:36:04;;;;;;;31.23;17.00;;;1.20;99.90;;;;;;4930458;29;20081;-85
2022/01/19 01:38:30;;;;;;;29.75;15.10;;;1.20;99.90;;;;;;4946211;29;20092;-84
2022/01/19 01:40:57;;;;;;;41.38;18.35;;;1.20;99.90;;;;;;4938395;29;20115;-86
2022/01/19 01:43:23;;;;;;;43.35;19.70;;;1.20;99.90;;;;;;4959552;28;20031;-91
2022/01/19 01:45:53;;;;;;;31.65;15.85;;;1.20;99.90;;;;;;4949023;28;20028;-90
2022/01/19 01:48:23;;;;;;;26.10;14.98;;;1.20;99.90;;;;;;4931726;29;20550;-86
2022/01/19 01:53:43;;;;;;;33.58;14.73;;;1.20;99.90;;;;;;4945481;29;20027;-86
2022/01/19 01:56:16;;;;;;;29.45;14.77;;;1.20;99.90;;;;;;4945242;29;20031;-87
2022/01/19 01:58:45;;;;;;;29.70;14.43;;;1.10;99.90;;;;;;4945491;29;20527;-88
2022/01/19 02:01:30;;;;;;;21.73;12.65;;;1.10;99.90;;;;;;4948897;29;20039;-88
2022/01/19 02:03:58;;;;;;;23.92;13.30;;;1.10;99.90;;;;;;4945755;29;20031;-86
2022/01/19 02:06:39;;;;;;;23.00;13.13;;;1.10;99.90;;;;;;4945196;29;20376;-88
2022/01/19 02:09:35;;;;;;;31.15;16.42;;;0.90;99.90;;;;;;4957550;29;20122;-88
2022/01/19 02:31:22;;;;;;;29.63;17.35;;;0.00;99.90;;;;;;4952783;28;20027;-85
2022/01/19 02:42:12;;;;;;;32.72;16.70;;;0.30;99.90;;;;;;4942235;29;20130;-85
2022/01/19 02:49:51;;;;;;;30.60;16.30;;;0.30;99.90;;;;;;4958147;29;20032;-84
2022/01/19 02:52:18;;;;;;;37.53;16.70;;;0.30;99.90;;;;;;4958188;28;20039;-84
2022/01/19 02:54:45;;;;;;;35.28;17.02;;;0.40;99.90;;;;;;4925988;29;20374;-85
2022/01/19 02:57:13;;;;;;;33.20;16.35;;;0.40;99.90;;;;;;4941628;29;20035;-85
2022/01/19 03:10:19;;;;;;;28.40;15.65;;;0.50;99.90;;;;;;4941869;29;20363;-85
2022/01/19 03:12:45;;;;;;;30.20;17.20;;;0.50;99.90;;;;;;4957365;29;20188;-84
2022/01/19 03:15:13;;;;;;;33.45;16.08;;;0.50;99.90;;;;;;4925703;29;20070;-85
2022/01/19 03:17:39;;;;;;;31.20;15.20;;;0.50;99.90;;;;;;4957366;28;20038;-84
2022/01/19 03:20:07;;;;;;;36.45;16.02;;;0.50;99.90;;;;;;4941049;29;20027;-85
2022/01/19 03:22:39;;;;;;;27.95;15.40;;;0.50;99.90;;;;;;4941175;29;20070;-85
2022/01/19 03:25:11;;;;;;;31.17;15.27;;;0.50;99.90;;;;;;4925132;29;20038;-84
2022/01/19 03:27:39;;;;;;;29.17;15.48;;;0.60;99.90;;;;;;4925471;29;20031;-85
2022/01/19 03:30:06;;;;;;;31.13;15.05;;;0.60;99.90;;;;;;4956929;28;20151;-85
2022/01/19 03:32:32;;;;;;;30.77;16.00;;;0.60;99.90;;;;;;4957004;29;20040;-85
2022/01/19 03:34:59;;;;;;;31.92;17.02;;;0.50;99.90;;;;;;4957626;29;20117;-84
2022/01/19 03:37:25;;;;;;;29.25;15.55;;;0.60;99.90;;;;;;4940465;29;20550;-85
2022/01/19 03:39:51;;;;;;;31.83;17.17;;;0.60;99.90;;;;;;4925010;29;20070;-84
2022/01/19 03:42:17;;;;;;;32.85;16.25;;;0.50;99.90;;;;;;4940417;29;20101;-85
2022/01/19 03:44:44;;;;;;;29.70;15.85;;;0.40;99.90;;;;;;4956594;29;20082;-85
2022/01/19 03:47:10;;;;;;;32.92;15.35;;;0.40;99.90;;;;;;4924711;29;20039;-85
2022/01/19 03:49:35;;;;;;;30.17;16.27;;;0.30;99.90;;;;;;4924161;29;20082;-84
2022/01/19 03:52:04;;;;;;;32.55;17.08;;;0.20;99.90;;;;;;4956285;29;20034;-85
2022/01/19 03:54:39;;;;;;;30.65;16.92;;;0.10;99.90;;;;;;4924558;29;20378;-84
2022/01/19 03:57:05;;;;;;;40.35;17.98;;;-0.10;99.90;;;;;;4940252;29;20031;-84
2022/01/19 03:59:31;;;;;;;69.13;28.45;;;-0.20;99.90;;;;;;4924143;29;20035;-85
2022/01/19 04:02:09;;;;;;;66.82;25.98;;;-0.30;99.90;;;;;;4923950;29;20035;-84
2022/01/19 04:04:47;;;;;;;35.60;18.23;;;-0.50;99.90;;;;;;4924051;29;20102;-85
2022/01/19 04:07:14;;;;;;;43.47;19.02;;;-0.70;99.90;;;;;;4939703;29;20489;-85
2022/01/19 04:09:45;;;;;;;40.03;19.98;;;-0.70;99.90;;;;;;4924218;29;20402;-84
2022/01/19 04:12:17;;;;;;;53.22;23.35;;;-0.80;99.90;;;;;;4923924;29;20054;-84
2022/01/19 04:14:43;;;;;;;69.30;28.30;;;-0.80;99.90;;;;;;4939941;29;20035;-85
2022/01/19 04:17:11;;;;;;;58.03;25.95;;;-0.90;99.90;;;;;;4924021;29;20367;-84
2022/01/19 04:22:26;;;;;;;57.60;27.23;;;-1.00;99.90;;;;;;4956116;29;20098;-84
2022/01/19 04:25:00;;;;;;;70.78;28.17;;;-1.00;99.90;;;;;;4955347;29;20478;-85
2022/01/19 04:30:08;;;;;;;62.47;26.73;;;-1.10;99.90;;;;;;4955003;29;20438;-83
2022/01/19 04:35:30;;;;;;;65.90;27.30;;;-1.10;99.90;;;;;;4955053;29;20390;-85
2022/01/19 04:38:53;;;;;;;68.28;27.20;;;-1.10;99.90;;;;;;4938906;29;20054;-84
2022/01/19 04:49:10;;;;;;;76.05;28.40;;;-1.10;99.90;;;;;;4955165;29;20027;-84
2022/01/19 05:08:11;;;;;;;116.43;47.33;;;-1.00;99.90;;;;;;4954290;29;20027;-83
2022/01/19 05:13:35;;;;;;;79.88;33.88;;;-1.00;99.90;;;;;;4955015;29;20066;-84
2022/01/19 05:16:01;;;;;;;80.18;31.15;;;-1.10;99.90;;;;;;4938979;29;20538;-84
2022/01/19 05:18:27;;;;;;;71.53;29.23;;;-1.10;99.90;;;;;;4938900;29;20027;-84
2022/01/19 05:20:53;;;;;;;75.03;31.98;;;-1.10;99.90;;;;;;4954945;28;20118;-85
2022/01/19 05:23:38;;;;;;;80.30;32.22;;;-1.10;99.90;;;;;;4941163;29;20043;-84
2022/01/19 05:26:04;;;;;;;86.30;33.55;;;-1.10;99.90;;;;;;4922692;29;20100;-84
2022/01/19 05:28:38;;;;;;;75.45;31.35;;;-1.20;99.90;;;;;;4923895;29;20386;-84
2022/01/19 05:31:04;;;;;;;76.30;30.92;;;-1.30;99.90;;;;;;4922614;29;20023;-84
2022/01/19 05:33:30;;;;;;;78.05;32.03;;;-1.40;99.90;;;;;;4954369;29;20031;-85
2022/01/19 05:35:57;;;;;;;73.85;30.60;;;-1.30;99.90;;;;;;4922579;29;20031;-84
2022/01/19 05:38:37;;;;;;;84.90;31.80;;;-1.40;99.90;;;;;;4938196;29;20541;-84
2022/01/19 05:41:21;;;;;;;90.15;31.10;;;-1.40;99.90;;;;;;4938479;29;20363;-85
2022/01/19 05:43:47;;;;;;;71.28;30.83;;;-1.50;99.90;;;;;;4922215;29;20035;-83
2022/01/19 05:46:13;;;;;;;77.95;32.55;;;-1.60;99.90;;;;;;4922245;29;20031;-84
2022/01/19 05:48:40;;;;;;;73.95;30.58;;;-1.70;99.90;;;;;;4938259;29;20028;-85
2022/01/19 05:51:06;;;;;;;84.97;33.15;;;-1.70;99.90;;;;;;4922620;29;20039;-85
2022/01/19 05:53:32;;;;;;;86.63;36.13;;;-1.80;99.90;;;;;;4923205;29;20481;-85
2022/01/19 05:56:01;;;;;;;88.47;35.00;;;-1.80;99.90;;;;;;4938672;29;20378;-85
2022/01/19 05:58:28;;;;;;;86.45;33.10;;;-1.70;99.90;;;;;;4938638;29;20031;-84
2022/01/19 06:00:58;;;;;;;77.97;31.52;;;-1.70;99.90;;;;;;4923472;29;20037;-85
2022/01/19 06:03:24;;;;;;;89.30;32.45;;;-1.70;99.90;;;;;;4938996;29;20042;-85
2022/01/19 06:06:07;;;;;;;79.70;31.17;;;-1.80;99.90;;;;;;4925342;29;20035;-85
2022/01/19 06:09:00;;;;;;;85.93;33.45;;;-1.80;99.90;;;;;;4941143;29;20046;-84
2022/01/19 06:11:27;;;;;;;91.55;35.42;;;-1.70;99.90;;;;;;4939617;29;20092;-84
2022/01/19 06:13:53;;;;;;;94.85;35.92;;;-1.60;99.90;;;;;;4926807;29;20027;-85
2022/01/19 06:16:19;;;;;;;92.63;33.13;;;-1.60;99.90;;;;;;4942192;29;20031;-84
2022/01/19 06:18:44;;;;;;;75.63;31.65;;;-1.60;99.90;;;;;;4926147;29;20039;-84
2022/01/19 06:21:12;;;;;;;76.10;31.45;;;-1.70;99.90;;;;;;4957953;29;20023;-84
2022/01/19 06:23:42;;;;;;;86.18;34.85;;;-1.70;99.90;;;;;;4941941;29;20031;-85
2022/01/19 06:26:11;;;;;;;84.07;32.45;;;-1.70;99.90;;;;;;4941619;29;20023;-84
2022/01/19 06:28:38;;;;;;;86.90;33.50;;;-1.70;99.90;;;;;;4942068;29;20549;-84
2022/01/19 06:31:05;;;;;;;95.07;34.75;;;-1.70;99.90;;;;;;4957526;29;20039;-84
2022/01/19 06:33:31;;;;;;;94.20;32.47;;;-1.80;99.90;;;;;;4925905;29;20039;-84
2022/01/19 06:35:57;;;;;;;90.55;33.42;;;-1.80;99.90;;;;;;4941783;29;20528;-84
2022/01/19 06:38:30;;;;;;;100.85;33.65;;;-1.80;99.90;;;;;;4926764;29;20035;-84
2022/01/19 06:41:04;;;;;;;95.13;34.05;;;-1.80;99.90;;;;;;4957566;28;20054;-84
2022/01/19 06:43:32;;;;;;;104.22;35.70;;;-1.80;99.90;;;;;;4925602;29;20582;-84
2022/01/19 06:46:00;;;;;;;94.25;33.45;;;-1.80;99.90;;;;;;4925809;29;20039;-84
2022/01/19 06:48:26;;;;;;;109.72;34.38;;;-1.80;99.90;;;;;;4925751;29;20027;-84
2022/01/19 06:50:58;;;;;;;92.03;33.83;;;-1.90;99.90;;;;;;4925398;29;20082;-84
2022/01/19 06:53:35;;;;;;;90.45;33.00;;;-1.90;99.90;;;;;;4942742;29;20023;-84
2022/01/19 06:56:09;;;;;;;96.45;34.65;;;-1.80;99.90;;;;;;4957420;28;20035;-83
2022/01/19 06:58:35;;;;;;;108.82;37.13;;;-1.80;99.90;;;;;;4957140;28;20035;-83
2022/01/19 07:01:17;;;;;;;;;;;-1.70;99.90;;;;;;4927844;29;20027;-84
2022/01/19 07:03:54;;;;;;;98.55;34.63;;;-1.70;99.90;;;;;;4940875;29;19926;-84
2022/01/19 07:06:22;;;;;;;104.75;35.30;;;-1.80;99.90;;;;;;4940488;29;20034;-85
2022/01/19 07:09:06;;;;;;;97.22;34.60;;;-1.90;99.90;;;;;;4944237;29;20038;-84
2022/01/19 07:11:33;;;;;;;96.10;32.95;;;-1.90;99.90;;;;;;4925171;29;20031;-83
2022/01/19 07:13:59;;;;;;;111.78;35.55;;;-1.90;99.90;;;;;;4940389;29;20035;-85
2022/01/19 07:16:25;;;;;;;97.18;34.60;;;-1.80;99.90;;;;;;4924971;29;20038;-84
2022/01/19 07:18:51;;;;;;;103.05;35.30;;;-1.80;99.90;;;;;;4925531;29;20035;-85
2022/01/19 07:21:17;;;;;;;95.57;35.38;;;-1.60;99.90;;;;;;4941167;29;20375;-84
2022/01/19 07:23:56;;;;;;;119.40;36.42;;;-1.60;99.90;;;;;;4925817;29;20058;-84
2022/01/19 07:26:22;;;;;;;94.68;33.85;;;-1.60;99.90;;;;;;4925181;29;20027;-84
2022/01/19 07:28:48;;;;;;;108.28;35.55;;;-1.60;99.90;;;;;;4940941;29;20031;-85
2022/01/19 07:31:14;;;;;;;104.97;36.97;;;-1.60;99.90;;;;;;4924812;29;20062;-84
2022/01/19 07:33:40;;;;;;;105.88;36.60;;;-1.60;99.90;;;;;;4925357;29;20035;-84
2022/01/19 07:36:06;;;;;;;99.45;36.25;;;-1.70;99.90;;;;;;4940952;29;20070;-84
2022/01/19 07:38:32;;;;;;;108.50;37.05;;;-1.70;99.90;;;;;;4925281;29;20071;-84
2022/01/19 07:40:58;;;;;;;95.75;36.65;;;-1.70;99.90;;;;;;4940534;29;20034;-84
2022/01/19 07:43:24;;;;;;;88.97;34.08;;;-1.70;99.90;;;;;;4925638;29;20027;-85
2022/01/19 07:46:18;;;;;;;106.82;35.70;;;-1.70;99.90;;;;;;4944428;29;20371;-85
2022/01/19 07:49:10;;;;;;;100.15;35.63;;;-1.70;99.90;;;;;;4957724;29;20110;-84
2022/01/19 07:51:52;;;;;;;109.10;38.33;;;-1.70;99.90;;;;;;4957260;29;20039;-84
2022/01/19 07:54:39;;;;;;;107.05;35.97;;;-1.70;99.90;;;;;;4940578;29;20042;-85
2022/01/19 07:57:40;;;;;;;134.00;50.92;;;-1.60;99.90;;;;;;4928621;29;20486;-83
2022/01/19 08:00:25;;;;;;;112.47;37.58;;;-1.70;99.90;;;;;;4943281;29;20469;-84
2022/01/19 08:02:51;;;;;;;116.82;39.63;;;-1.60;99.90;;;;;;4940159;29;20129;-84
2022/01/19 08:05:40;;;;;;;110.25;38.58;;;-1.50;99.90;;;;;;4927471;29;20031;-84
2022/01/19 08:08:07;;;;;;;103.75;35.85;;;-1.50;99.90;;;;;;4956364;28;20039;-84
2022/01/19 08:10:33;;;;;;;94.72;33.70;;;-1.50;99.90;;;;;;4958259;28;20794;-83
2022/01/19 08:13:02;;;;;;;105.65;35.45;;;-1.50;99.90;;;;;;4924455;29;20059;-84
2022/01/19 08:15:29;;;;;;;100.97;34.90;;;-1.40;99.90;;;;;;4924442;29;20031;-84
2022/01/19 08:17:58;;;;;;;89.50;33.55;;;-1.40;99.90;;;;;;4924928;29;20043;-85
2022/01/19 08:20:24;;;;;;;97.22;33.85;;;-1.40;99.90;;;;;;4924991;29;20035;-85
2022/01/19 08:22:49;;;;;;;103.97;34.13;;;-1.30;99.90;;;;;;4924228;29;20046;-84
2022/01/19 08:25:22;;;;;;;85.25;32.33;;;-1.30;99.90;;;;;;4940224;29;20086;-83
2022/01/19 08:27:48;;;;;;;82.43;32.58;;;-1.30;99.90;;;;;;4940146;29;20490;-84
2022/01/19 08:30:16;;;;;;;92.82;32.85;;;-1.20;99.90;;;;;;4923826;29;20386;-85
2022/01/19 08:32:42;;;;;;;93.57;32.28;;;-1.10;99.90;;;;;;4939683;29;20042;-84
2022/01/19 08:35:17;;;;;;;86.13;31.67;;;-1.10;99.90;;;;;;4924790;29;20042;-84
2022/01/19 08:38:12;;;;;;;82.32;31.48;;;-1.10;99.90;;;;;;4921279;29;20032;-84
2022/01/19 08:40:54;;;;;;;77.65;29.05;;;-1.00;99.90;;;;;;4925999;29;20074;-84
2022/01/19 08:43:42;;;;;;;87.00;29.80;;;-0.90;99.90;;;;;;4924121;29;20035;-85
2022/01/19 08:46:09;;;;;;;72.60;28.70;;;-0.70;99.90;;;;;;4923750;29;20027;-85
2022/01/19 08:49:07;;;;;;;67.57;27.90;;;-0.60;99.90;;;;;;4912376;29;20563;-84
2022/01/19 08:51:53;;;;;;;76.03;29.70;;;-0.60;99.90;;;;;;4935166;29;20078;-82
2022/01/19 08:54:25;;;;;;;76.20;28.52;;;-0.50;99.90;;;;;;4924105;29;20058;-85
2022/01/19 08:57:04;;;;;;;68.05;26.65;;;-0.50;99.90;;;;;;4925663;29;20031;-84
2022/01/19 08:59:31;;;;;;;76.00;28.27;;;-0.50;99.90;;;;;;4938896;29;20085;-84
2022/01/19 09:01:58;;;;;;;61.65;26.40;;;-0.50;99.90;;;;;;4923278;29;20038;-84
2022/01/19 09:04:24;;;;;;;59.20;26.83;;;-0.40;99.90;;;;;;4939212;29;20323;-84
2022/01/19 09:06:50;;;;;;;56.67;25.30;;;-0.40;99.90;;;;;;4939569;29;20470;-84
2022/01/19 09:09:16;;;;;;;61.42;24.83;;;-0.30;99.90;;;;;;4956756;29;20028;-85
2022/01/19 09:11:43;;;;;;;54.75;25.08;;;-0.30;99.90;;;;;;4923568;29;20355;-85
2022/01/19 09:14:10;;;;;;;56.78;25.60;;;-0.20;99.90;;;;;;4939759;29;20371;-85
2022/01/19 09:16:36;;;;;;;52.38;24.17;;;-0.20;99.90;;;;;;4939512;29;20106;-85
2022/01/19 09:19:04;;;;;;;47.88;24.75;;;-0.10;99.90;;;;;;4939616;29;20043;-85
2022/01/19 09:21:31;;;;;;;49.42;23.73;;;0.00;99.90;;;;;;4939730;29;20035;-84
2022/01/19 09:23:57;;;;;;;48.90;24.50;;;0.00;99.90;;;;;;4939356;29;20035;-84
2022/01/19 09:26:22;;;;;;;54.00;24.52;;;0.10;99.90;;;;;;4923679;29;20046;-84
2022/01/19 09:28:48;;;;;;;55.67;25.23;;;0.10;99.90;;;;;;4939458;29;20036;-85
2022/01/19 09:31:17;;;;;;;58.17;24.42;;;0.10;99.90;;;;;;4939676;29;20413;-85
2022/01/19 09:33:52;;;;;;;48.35;21.88;;;0.20;99.90;;;;;;4923502;29;20031;-85
2022/01/19 09:36:31;;;;;;;44.83;22.13;;;0.20;99.90;;;;;;4939174;29;20066;-84
2022/01/19 09:38:57;;;;;;;49.17;20.80;;;0.30;99.90;;;;;;4939115;29;20078;-85
2022/01/19 09:41:23;;;;;;;42.60;23.15;;;0.40;99.90;;;;;;4923416;29;20433;-85
2022/01/19 09:43:49;;;;;;;48.10;22.20;;;0.40;99.90;;;;;;4939329;29;20035;-84
2022/01/19 09:46:14;;;;;;;45.03;20.90;;;0.50;99.90;;;;;;4923876;29;20034;-85
2022/01/19 09:48:40;;;;;;;36.58;19.23;;;0.50;99.90;;;;;;4926919;29;20024;-85
2022/01/19 09:51:06;;;;;;;45.05;21.00;;;0.60;99.90;;;;;;4942490;29;20031;-84
2022/01/19 09:53:32;;;;;;;41.92;19.52;;;0.60;99.90;;;;;;4926253;29;20086;-84
2022/01/19 09:56:01;;;;;;;39.83;21.20;;;0.70;99.90;;;;;;4926267;29;20071;-84
2022/01/19 09:58:27;;;;;;;47.65;20.80;;;0.70;99.90;;;;;;4926593;29;20035;-84
2022/01/19 10:00:53;;;;;;;43.97;21.17;;;0.80;99.90;;;;;;4926677;29;20478;-84
2022/01/19 10:03:24;;;;;;;47.45;21.33;;;0.90;99.90;;;;;;4958462;29;20027;-85
2022/01/19 10:06:05;;;;;;;42.65;21.38;;;1.00;99.90;;;;;;4959898;29;20090;-85
2022/01/19 10:08:46;;;;;;;39.97;18.67;;;1.10;99.90;;;;;;4942556;29;20475;-85
2022/01/19 10:17:01;;;;;;;43.28;20.33;;;1.20;99.90;;;;;;4942170;29;20035;-84
2022/01/19 10:19:32;;;;;;;42.13;21.10;;;1.20;99.90;;;;;;4958709;29;20043;-83
2022/01/19 10:22:13;;;;;;;42.35;21.48;;;1.30;99.90;;;;;;4957782;29;20035;-85
2022/01/19 10:24:50;;;;;;;37.65;18.90;;;1.50;99.90;;;;;;4941894;29;20139;-85
2022/01/19 10:27:37;;;;;;;40.33;20.63;;;1.90;99.90;;;;;;4942272;29;20066;-85
2022/01/19 10:30:03;;;;;;;37.80;18.75;;;2.00;99.90;;;;;;4942508;29;20031;-86
2022/01/19 10:32:41;;;;;;;34.08;18.77;;;2.20;99.90;;;;;;4942196;29;20035;-85
2022/01/19 10:35:12;;;;;;;40.88;19.48;;;2.10;99.90;;;;;;4958486;29;20031;-85
2022/01/19 10:37:38;;;;;;;42.72;19.23;;;2.00;99.90;;;;;;4942228;29;20030;-85
2022/01/19 10:40:05;;;;;;;36.60;18.40;;;2.10;99.90;;;;;;4942068;29;20118;-85
2022/01/19 10:42:32;;;;;;;38.22;18.15;;;2.10;99.90;;;;;;4925629;29;20024;-86
2022/01/19 10:45:07;;;;;;;35.70;18.80;;;2.00;99.90;;;;;;4941169;29;20486;-85
2022/01/19 10:47:55;;;;;;;46.03;22.05;;;1.90;99.90;;;;;;4926076;29;20031;-85
2022/01/19 10:50:28;;;;;;;41.22;20.42;;;1.80;99.90;;;;;;4941867;29;20035;-85
2022/01/19 10:52:56;;;;;;;41.92;19.58;;;1.70;99.90;;;;;;4941569;29;20513;-84
2022/01/19 10:55:42;;;;;;;44.22;21.52;;;1.70;99.90;;;;;;4941129;29;20494;-85
2022/01/19 10:58:13;;;;;;;46.03;20.73;;;1.70;99.90;;;;;;4941498;29;20035;-85
2022/01/19 11:00:47;;;;;;;;;;;1.80;99.90;;;;;;4926402;29;20042;-85
2022/01/19 11:03:37;;;;;;;41.97;21.08;;;1.90;99.90;;;;;;4925973;29;19915;-84
2022/01/19 11:06:03;;;;;;;40.60;20.55;;;1.90;99.90;;;;;;4941494;29;20026;-85
2022/01/19 11:08:29;;;;;;;41.80;23.23;;;1.90;99.90;;;;;;4959664;29;20039;-86
2022/01/19 11:10:57;;;;;;;41.75;19.83;;;1.90;99.90;;;;;;4925643;29;20033;-86
2022/01/19 11:13:29;;;;;;;36.78;20.25;;;1.90;99.90;;;;;;4956629;29;20035;-85
2022/01/19 11:15:56;;;;;;;35.38;19.60;;;2.00;99.90;;;;;;4958089;29;20035;-85
2022/01/19 11:18:25;;;;;;;41.97;21.63;;;2.00;99.90;;;;;;4925105;29;20039;-85
2022/01/19 11:20:52;;;;;;;44.17;21.33;;;2.00;99.90;;;;;;4925230;29;20059;-85
2022/01/19 11:23:29;;;;;;;42.88;21.23;;;2.00;99.90;;;;;;4925275;29;20039;-85
2022/01/19 11:26:01;;;;;;;41.10;20.58;;;2.10;99.90;;;;;;4957511;29;20034;-85
2022/01/19 11:28:40;;;;;;;40.08;20.40;;;2.20;99.90;;;;;;4958486;29;20030;-85
2022/01/19 11:31:12;;;;;;;36.65;19.88;;;2.30;99.90;;;;;;4925535;29;20808;-85
2022/01/19 11:33:53;;;;;;;36.28;20.05;;;2.40;99.90;;;;;;4925180;29;20401;-85
2022/01/19 11:36:23;;;;;;;40.58;20.38;;;2.40;99.90;;;;;;4925071;29;20039;-85
2022/01/19 11:39:03;;;;;;;42.20;21.83;;;2.40;99.90;;;;;;4941315;29;20516;-86
2022/01/19 11:41:38;;;;;;;38.92;20.25;;;2.40;99.90;;;;;;4924927;29;20070;-86
2022/01/19 11:44:06;;;;;;;41.33;21.30;;;2.50;99.90;;;;;;4940538;29;20542;-86
2022/01/19 11:46:40;;;;;;;38.45;19.70;;;2.40;99.90;;;;;;4925270;29;20023;-85
2022/01/19 11:49:11;;;;;;;40.22;19.58;;;2.30;99.90;;;;;;4924670;29;20413;-85
2022/01/19 11:51:55;;;;;;;43.17;20.02;;;2.10;99.90;;;;;;4924353;29;20039;-85
2022/01/19 11:54:30;;;;;;;37.88;20.17;;;2.00;99.90;;;;;;4940390;29;20084;-85
2022/01/19 11:56:59;;;;;;;51.72;24.13;;;1.90;99.90;;;;;;4924214;29;20410;-85
2022/01/19 11:59:36;;;;;;;57.78;27.73;;;1.80;99.90;;;;;;4940077;29;20074;-86
2022/01/19 12:02:21;;;;;;;92.43;35.60;;;1.80;99.90;;;;;;4940535;29;20042;-86
2022/01/19 12:04:50;;;;;;;45.42;21.98;;;1.70;99.90;;;;;;4957306;29;20509;-84
2022/01/19 12:07:37;;;;;;;43.60;22.33;;;1.70;99.90;;;;;;4924396;29;20474;-85
2022/01/19 12:10:10;;;;;;;45.90;21.92;;;1.80;99.90;;;;;;4955211;28;20035;-86
2022/01/19 12:12:44;;;;;;;41.33;20.52;;;1.80;99.90;;;;;;4924611;29;20394;-85
2022/01/19 12:15:54;;;;;;;46.40;23.42;;;1.70;99.90;;;;;;4943838;29;20046;-85
2022/01/19 12:18:41;;;;;;;43.40;20.38;;;1.70;99.90;;;;;;4940139;29;20126;-86
2022/01/19 12:21:10;;;;;;;46.38;23.17;;;1.70;99.90;;;;;;4924503;29;20031;-86
2022/01/19 12:23:37;;;;;;;41.15;21.52;;;1.70;99.90;;;;;;4940274;29;20042;-85
2022/01/19 12:26:06;;;;;;;47.78;22.35;;;1.70;99.90;;;;;;4940676;29;20475;-85
2022/01/19 12:28:39;;;;;;;44.90;21.52;;;1.60;99.90;;;;;;4940256;29;20041;-86
2022/01/19 12:31:24;;;;;;;46.83;23.13;;;1.50;99.90;;;;;;4940711;29;20039;-86
2022/01/19 12:34:04;;;;;;;44.35;22.63;;;1.50;99.90;;;;;;4957570;29;20529;-85
2022/01/19 12:36:42;;;;;;;51.05;23.20;;;1.40;99.90;;;;;;4939890;29;20035;-85
2022/01/19 12:39:26;;;;;;;47.65;23.98;;;1.40;99.90;;;;;;4957487;29;20041;-86
2022/01/19 12:42:08;;;;;;;50.15;24.17;;;1.30;99.90;;;;;;4955830;29;20035;-86
2022/01/19 12:44:54;;;;;;;52.10;24.88;;;1.30;99.90;;;;;;4939865;29;20605;-85
2022/01/19 12:47:29;;;;;;;49.92;24.50;;;1.30;99.90;;;;;;4940473;29;20035;-86
2022/01/19 12:49:57;;;;;;;48.42;24.73;;;1.30;99.90;;;;;;4960029;29;20024;-86
2022/01/19 12:52:26;;;;;;;47.63;23.35;;;1.30;99.90;;;;;;4940151;29;20031;-85
2022/01/19 12:54:53;;;;;;;53.17;25.90;;;1.20;99.90;;;;;;4940174;29;20031;-85
2022/01/19 12:57:20;;;;;;;50.45;24.15;;;1.20;99.90;;;;;;4940254;29;20039;-86
2022/01/19 12:59:49;;;;;;;48.90;25.13;;;1.20;99.90;;;;;;4939704;29;20031;-86
2022/01/19 13:02:17;;;;;;;46.38;23.25;;;1.30;99.90;;;;;;4939898;29;20047;-85
2022/01/19 13:04:46;;;;;;;50.72;24.85;;;1.30;99.90;;;;;;4939924;29;20044;-86
2022/01/19 13:07:18;;;;;;;52.00;23.75;;;1.30;99.90;;;;;;4924356;29;20031;-86
2022/01/19 13:10:07;;;;;;;50.42;23.38;;;1.20;99.90;;;;;;4939583;29;20038;-86
2022/01/19 13:12:44;;;;;;;47.78;23.98;;;1.10;99.90;;;;;;4939632;29;20355;-85
2022/01/19 13:15:10;;;;;;;52.00;24.52;;;1.10;99.90;;;;;;4939208;29;20036;-85
2022/01/19 13:17:48;;;;;;;47.22;22.60;;;1.10;99.90;;;;;;4939522;29;20031;-84
2022/01/19 13:20:19;;;;;;;49.70;24.20;;;1.10;99.90;;;;;;4939600;28;20035;-86
2022/01/19 13:22:51;;;;;;;47.47;24.45;;;1.10;99.90;;;;;;4942424;29;20042;-85
2022/01/19 13:25:25;;;;;;;46.38;22.70;;;1.10;99.90;;;;;;4942514;29;20566;-85
2022/01/19 13:27:56;;;;;;;47.55;24.63;;;1.10;99.90;;;;;;4942106;29;20058;-86
2022/01/19 13:30:24;;;;;;;43.90;22.58;;;1.10;99.90;;;;;;4942007;29;20421;-86
2022/01/19 13:32:50;;;;;;;54.40;23.23;;;1.10;99.90;;;;;;4941973;29;20122;-86
2022/01/19 13:35:18;;;;;;;44.42;22.88;;;1.00;99.90;;;;;;4942172;29;20047;-86
2022/01/19 13:37:48;;;;;;;47.33;23.15;;;1.00;99.90;;;;;;4941713;29;20554;-85
2022/01/19 13:40:16;;;;;;;45.50;23.30;;;1.00;99.90;;;;;;4942638;29;20031;-86
2022/01/19 13:42:47;;;;;;;47.17;23.55;;;1.00;99.90;;;;;;4941403;29;20082;-85
2022/01/19 13:48:47;;;;;;;47.28;22.50;;;1.00;99.90;;;;;;4959795;29;19917;-85
2022/01/19 13:51:14;;;;;;;47.10;23.13;;;1.00;99.90;;;;;;4942091;29;20121;-85
2022/01/19 13:53:46;;;;;;;54.38;23.90;;;1.00;99.90;;;;;;4942252;29;20138;-86
2022/01/19 13:56:14;;;;;;;48.33;21.35;;;1.00;99.90;;;;;;4942124;29;20039;-85
2022/01/19 13:58:43;;;;;;;45.97;21.55;;;1.00;99.90;;;;;;4941819;29;20038;-85
2022/01/19 14:01:14;;;;;;;52.13;23.58;;;1.00;99.90;;;;;;4941998;29;20034;-86
2022/01/19 14:04:00;;;;;;;49.10;22.80;;;1.10;99.90;;;;;;4925987;29;20492;-85
2022/01/19 14:06:29;;;;;;;44.47;21.20;;;1.00;99.90;;;;;;4941827;29;20043;-85
2022/01/19 14:09:20;;;;;;;50.83;23.10;;;1.00;99.90;;;;;;4926052;29;20031;-86
2022/01/19 14:12:06;;;;;;;49.88;23.42;;;1.00;99.90;;;;;;4942437;29;20038;-85
2022/01/19 14:14:36;;;;;;;51.42;23.77;;;1.00;99.90;;;;;;4941963;29;20383;-86
2022/01/19 14:17:07;;;;;;;58.10;26.80;;;1.00;99.90;;;;;;4925724;29;20039;-85
2022/01/19 14:19:48;;;;;;;56.58;25.17;;;1.00;99.90;;;;;;4925647;29;20038;-86
2022/01/19 14:22:22;;;;;;;58.27;26.07;;;1.00;99.90;;;;;;4904989;29;1144230;-85
2022/01/19 14:24:58;;;;;;;60.22;27.33;;;0.90;99.90;;;;;;4942421;29;20129;-85
2022/01/19 14:27:24;;;;;;;54.15;25.45;;;0.90;99.90;;;;;;4958838;29;20035;-86